createdAt,value
2017-07-30T00:01:01.261Z,17.40
2017-07-30T00:03:28.705Z,17.40
2017-07-30T00:08:30.168Z,17.50
2017-07-30T00:10:57.608Z,17.50
2017-07-30T00:13:25.061Z,17.60
2017-07-30T00:15:52.532Z,17.70
2017-07-30T00:18:19.988Z,17.70
2017-07-30T00:20:47.425Z,17.80
2017-07-30T00:23:14.879Z,17.80
2017-07-30T00:25:42.323Z,17.80
2017-07-30T00:28:09.765Z,17.80
2017-07-30T00:30:37.468Z,17.80
2017-07-30T00:33:04.911Z,17.70
2017-07-30T00:35:32.366Z,17.60
2017-07-30T00:38:00.052Z,17.60
2017-07-30T00:40:27.495Z,17.70
2017-07-30T00:42:54.943Z,17.70
2017-07-30T00:45:22.696Z,17.80
2017-07-30T00:47:50.148Z,17.80
2017-07-30T00:50:17.602Z,17.80
2017-07-30T00:52:45.288Z,17.90
2017-07-30T00:55:12.741Z,17.80
2017-07-30T00:57:40.190Z,17.90
2017-07-30T01:00:07.660Z,17.90
2017-07-30T01:02:35.113Z,17.90
2017-07-30T01:05:02.580Z,17.90
2017-07-30T01:07:30.052Z,18.00
2017-07-30T01:09:57.898Z,17.90
2017-07-30T01:12:25.348Z,17.90
2017-07-30T01:14:53.003Z,17.90
2017-07-30T01:17:20.453Z,17.90
2017-07-30T01:19:47.908Z,18.00
2017-07-30T01:22:15.383Z,18.00
2017-07-30T01:24:42.836Z,18.10
2017-07-30T01:27:10.290Z,18.10
2017-07-30T01:29:37.758Z,18.10
2017-07-30T01:32:05.604Z,18.10
2017-07-30T01:34:33.044Z,18.10
2017-07-30T01:37:00.813Z,18.10
2017-07-30T01:39:28.263Z,18.20
2017-07-30T01:41:55.712Z,18.10
2017-07-30T01:44:23.199Z,18.20
2017-07-30T01:46:50.644Z,18.20
2017-07-30T01:49:18.088Z,18.20
2017-07-30T01:51:45.559Z,18.10
2017-07-30T01:54:13.009Z,18.00
2017-07-30T01:56:40.455Z,17.90
2017-07-30T01:59:08.105Z,18.10
2017-07-30T02:01:35.558Z,18.00
2017-07-30T02:04:03.000Z,18.00
2017-07-30T02:06:30.721Z,18.00
2017-07-30T02:08:58.587Z,18.00
2017-07-30T02:11:26.820Z,17.90
2017-07-30T02:13:54.290Z,17.90
2017-07-30T02:16:21.740Z,17.80
2017-07-30T02:18:49.183Z,17.80
2017-07-30T02:21:16.852Z,17.70
2017-07-30T02:23:44.300Z,17.60
2017-07-30T02:26:11.772Z,17.60
2017-07-30T02:28:39.259Z,17.60
2017-07-30T02:31:06.727Z,17.70
2017-07-30T02:33:34.187Z,17.60
2017-07-30T02:36:01.687Z,17.60
2017-07-30T02:38:29.162Z,17.70
2017-07-30T02:40:56.627Z,17.60
2017-07-30T02:43:24.308Z,17.60
2017-07-30T02:45:51.770Z,17.50
2017-07-30T02:48:19.250Z,17.50
2017-07-30T02:50:46.843Z,17.50
2017-07-30T02:53:14.711Z,17.50
2017-07-30T02:55:42.167Z,17.50
2017-07-30T02:58:09.669Z,17.40
2017-07-30T03:00:37.131Z,17.40
2017-07-30T03:03:04.591Z,17.40
2017-07-30T03:05:32.212Z,17.30
2017-07-30T03:07:59.677Z,17.30
2017-07-30T03:10:27.138Z,17.30
2017-07-30T03:12:54.614Z,17.20
2017-07-30T03:15:22.087Z,17.20
2017-07-30T03:17:49.564Z,17.20
2017-07-30T03:20:17.222Z,17.20
2017-07-30T03:22:44.688Z,17.10
2017-07-30T03:25:12.544Z,17.10
2017-07-30T03:27:40.203Z,17.10
2017-07-30T03:30:07.681Z,17.10
2017-07-30T03:32:35.160Z,17.10
2017-07-30T03:35:02.665Z,17.10
2017-07-30T03:37:30.381Z,17.10
2017-07-30T03:39:57.830Z,17.10
2017-07-30T03:42:25.751Z,17.10
2017-07-30T03:44:53.221Z,17.10
2017-07-30T03:47:21.082Z,17.10
2017-07-30T03:49:49.238Z,17.10
2017-07-30T03:52:16.698Z,17.10
2017-07-30T03:54:44.150Z,17.10
2017-07-30T03:57:11.913Z,17.20
2017-07-30T03:59:39.772Z,17.20
2017-07-30T04:02:07.230Z,17.20
2017-07-30T04:04:34.704Z,17.30
2017-07-30T04:07:02.565Z,17.40
2017-07-30T04:09:30.027Z,17.40
2017-07-30T04:11:57.767Z,17.40
2017-07-30T04:14:25.222Z,17.40
2017-07-30T04:16:52.682Z,17.50
2017-07-30T04:19:20.342Z,17.50
2017-07-30T04:21:47.808Z,17.60
2017-07-30T04:24:15.672Z,17.70
2017-07-30T04:26:43.822Z,17.70
2017-07-30T04:29:11.292Z,17.70
2017-07-30T04:31:39.176Z,17.80
2017-07-30T04:34:06.675Z,17.80
2017-07-30T04:36:34.144Z,17.80
2017-07-30T04:39:01.607Z,17.80
2017-07-30T04:41:29.292Z,17.90
2017-07-30T04:43:57.147Z,17.90
2017-07-30T04:46:24.612Z,17.90
2017-07-30T04:48:52.116Z,17.90
2017-07-30T04:51:19.585Z,17.90
2017-07-30T04:53:47.056Z,18.00
2017-07-30T04:56:14.723Z,18.00
2017-07-30T04:58:42.191Z,18.10
2017-07-30T05:01:10.055Z,18.20
2017-07-30T05:03:37.937Z,18.20
2017-07-30T05:06:05.401Z,18.20
2017-07-30T05:08:32.859Z,18.20
2017-07-30T05:11:00.587Z,18.30
2017-07-30T05:13:28.047Z,18.30
2017-07-30T05:15:55.903Z,18.40
2017-07-30T05:18:23.379Z,18.40
2017-07-30T05:20:50.834Z,18.50
2017-07-30T05:23:18.304Z,18.60
2017-07-30T05:25:46.034Z,18.60
2017-07-30T05:28:13.487Z,18.60
2017-07-30T05:30:40.950Z,18.70
2017-07-30T05:33:08.426Z,18.80
2017-07-30T05:35:35.879Z,18.80
2017-07-30T05:38:03.340Z,18.90
2017-07-30T05:40:31.066Z,18.90
2017-07-30T05:42:58.524Z,19.00
2017-07-30T05:45:25.979Z,19.00
2017-07-30T05:47:53.471Z,19.10
2017-07-30T05:50:20.928Z,19.10
2017-07-30T05:52:48.391Z,19.20
2017-07-30T05:55:15.979Z,19.20
2017-07-30T05:57:43.442Z,19.30
2017-07-30T06:00:10.899Z,19.30
2017-07-30T06:02:38.493Z,19.40
2017-07-30T06:05:05.971Z,19.50
2017-07-30T06:07:33.435Z,19.50
2017-07-30T06:10:00.924Z,19.60
2017-07-30T06:12:28.378Z,19.70
2017-07-30T06:14:55.834Z,19.70
2017-07-30T06:17:23.327Z,19.80
2017-07-30T06:19:50.787Z,19.80
2017-07-30T06:22:18.258Z,19.90
2017-07-30T06:24:45.732Z,20.00
2017-07-30T06:27:13.190Z,20.10
2017-07-30T06:29:40.658Z,20.20
2017-07-30T06:32:08.160Z,20.20
2017-07-30T06:34:36.010Z,20.40
2017-07-30T06:37:03.491Z,20.40
2017-07-30T06:39:31.078Z,20.40
2017-07-30T06:41:58.543Z,20.50
2017-07-30T06:44:26.015Z,20.60
2017-07-30T06:46:53.527Z,20.60
2017-07-30T06:49:20.983Z,20.60
2017-07-30T06:51:48.431Z,20.60
2017-07-30T06:54:15.907Z,20.60
2017-07-30T06:56:43.368Z,20.60
2017-07-30T06:59:10.832Z,20.50
2017-07-30T07:01:38.320Z,20.40
2017-07-30T07:04:06.183Z,20.20
2017-07-30T07:06:33.647Z,20.20
2017-07-30T07:09:01.298Z,20.10
2017-07-30T07:11:28.760Z,20.00
2017-07-30T07:13:56.223Z,19.80
2017-07-30T07:16:23.695Z,19.20
2017-07-30T07:18:51.150Z,19.20
2017-07-30T07:21:18.609Z,19.10
2017-07-30T07:23:46.094Z,19.10
2017-07-30T07:26:13.558Z,19.00
2017-07-30T07:28:41.018Z,19.00
2017-07-30T07:31:08.528Z,19.00
2017-07-30T07:33:36.005Z,18.90
2017-07-30T07:36:04.114Z,19.00
2017-07-30T07:38:31.884Z,19.10
2017-07-30T07:40:59.343Z,19.10
2017-07-30T07:43:26.810Z,19.10
2017-07-30T07:45:54.303Z,19.20
2017-07-30T07:48:22.057Z,19.20
2017-07-30T07:50:50.423Z,19.20
2017-07-30T07:53:17.952Z,19.30
2017-07-30T07:55:45.406Z,19.40
2017-07-30T07:58:12.867Z,19.50
2017-07-30T08:00:40.379Z,19.50
2017-07-30T08:03:07.860Z,19.50
2017-07-30T08:05:35.307Z,19.50
2017-07-30T08:08:02.803Z,19.60
2017-07-30T08:10:30.804Z,19.70
2017-07-30T08:12:58.255Z,19.70
2017-07-30T08:15:25.763Z,19.80
2017-07-30T08:17:53.231Z,19.90
2017-07-30T08:20:20.704Z,19.90
2017-07-30T08:22:48.212Z,19.90
2017-07-30T08:25:15.672Z,20.10
2017-07-30T08:27:43.144Z,20.10
2017-07-30T08:30:10.798Z,20.20
2017-07-30T08:32:38.259Z,20.30
2017-07-30T08:35:05.715Z,20.40
2017-07-30T08:37:33.223Z,20.60
2017-07-30T08:40:00.696Z,20.80
2017-07-30T08:42:28.168Z,20.90
2017-07-30T08:44:55.826Z,21.00
2017-07-30T08:47:23.288Z,21.20
2017-07-30T08:49:50.739Z,21.30
2017-07-30T08:52:18.230Z,21.50
2017-07-30T08:54:45.696Z,21.70
2017-07-30T08:57:13.163Z,21.80
2017-07-30T08:59:40.643Z,21.80
2017-07-30T09:02:08.166Z,22.00
2017-07-30T09:04:37.090Z,22.10
2017-07-30T09:07:04.580Z,22.40
2017-07-30T09:09:32.433Z,22.60
2017-07-30T09:11:59.891Z,22.60
2017-07-30T09:14:27.384Z,22.60
2017-07-30T09:16:54.865Z,22.60
2017-07-30T09:19:22.397Z,22.80
2017-07-30T09:21:50.220Z,22.80
2017-07-30T09:24:17.716Z,22.90
2017-07-30T09:26:45.216Z,23.00
2017-07-30T09:29:12.731Z,23.10
2017-07-30T09:31:40.187Z,23.20
2017-07-30T09:34:07.643Z,23.30
2017-07-30T09:36:35.379Z,23.40
2017-07-30T09:39:03.244Z,23.80
2017-07-30T09:41:31.095Z,24.10
2017-07-30T09:43:59.134Z,24.30
2017-07-30T09:46:26.656Z,24.30
2017-07-30T09:48:54.119Z,24.60
2017-07-30T09:51:21.602Z,24.30
2017-07-30T09:53:49.063Z,24.20
2017-07-30T09:56:16.544Z,24.30
2017-07-30T09:58:44.032Z,24.20
2017-07-30T10:01:11.508Z,24.30
2017-07-30T10:03:39.449Z,24.20
2017-07-30T10:06:06.917Z,24.20
2017-07-30T10:08:34.389Z,24.30
2017-07-30T10:11:01.876Z,24.50
2017-07-30T10:13:29.347Z,24.90
2017-07-30T10:15:56.837Z,25.00
2017-07-30T10:18:24.293Z,24.90
2017-07-30T10:20:51.791Z,25.10
2017-07-30T10:23:19.244Z,25.00
2017-07-30T10:25:46.724Z,25.00
2017-07-30T10:28:14.784Z,25.20
2017-07-30T10:30:42.244Z,25.20
2017-07-30T10:33:09.691Z,25.50
2017-07-30T10:35:37.358Z,25.20
2017-07-30T10:38:04.807Z,25.40
2017-07-30T10:40:32.263Z,25.40
2017-07-30T10:43:00.147Z,25.70
2017-07-30T10:45:27.600Z,25.70
2017-07-30T10:47:55.442Z,25.70
2017-07-30T10:50:22.940Z,25.70
2017-07-30T10:52:50.394Z,26.50
2017-07-30T10:55:17.847Z,26.70
2017-07-30T10:57:45.581Z,26.30
2017-07-30T11:00:13.035Z,25.80
2017-07-30T11:02:40.498Z,25.80
2017-07-30T11:05:08.556Z,26.30
2017-07-30T11:07:36.016Z,26.30
2017-07-30T11:10:03.468Z,26.40
2017-07-30T11:12:30.948Z,26.50
2017-07-30T11:14:58.790Z,26.40
2017-07-30T11:17:26.239Z,26.40
2017-07-30T11:19:53.904Z,26.20
2017-07-30T11:22:21.367Z,26.50
2017-07-30T11:24:48.819Z,26.40
2017-07-30T11:27:16.468Z,26.20
2017-07-30T11:29:43.926Z,26.00
2017-07-30T11:32:11.387Z,25.90
2017-07-30T11:34:39.142Z,26.10
2017-07-30T11:37:07.008Z,26.50
2017-07-30T11:39:34.463Z,26.50
2017-07-30T11:42:01.960Z,26.50
2017-07-30T11:44:29.416Z,26.70
2017-07-30T11:46:56.874Z,26.70
2017-07-30T11:49:24.592Z,27.30
2017-07-30T11:51:52.065Z,27.50
2017-07-30T11:54:19.527Z,27.20
2017-07-30T11:56:47.770Z,28.00
2017-07-30T11:59:15.228Z,28.00
2017-07-30T12:01:42.684Z,28.10
2017-07-30T12:04:10.184Z,27.40
2017-07-30T12:06:37.644Z,27.50
2017-07-30T12:09:05.098Z,26.80
2017-07-30T12:11:32.676Z,26.70
2017-07-30T12:14:00.132Z,27.40
2017-07-30T12:16:27.582Z,27.80
2017-07-30T12:18:55.077Z,27.60
2017-07-30T12:21:22.534Z,27.20
2017-07-30T12:23:49.983Z,27.20
2017-07-30T12:26:17.645Z,26.50
2017-07-30T12:28:45.095Z,26.10
2017-07-30T12:31:12.565Z,26.20
2017-07-30T12:33:40.042Z,26.40
2017-07-30T12:36:07.882Z,26.70
2017-07-30T12:38:35.339Z,26.70
2017-07-30T12:41:02.831Z,27.00
2017-07-30T12:43:30.283Z,27.20
2017-07-30T12:45:57.727Z,27.10
2017-07-30T12:48:25.193Z,27.20
2017-07-30T12:50:52.659Z,27.10
2017-07-30T12:53:20.102Z,27.70
2017-07-30T12:55:47.923Z,27.70
2017-07-30T12:58:15.383Z,27.80
2017-07-30T13:00:42.836Z,28.50
2017-07-30T13:03:10.323Z,27.90
2017-07-30T13:08:11.819Z,26.60
2017-07-30T13:10:39.274Z,26.30
2017-07-30T13:13:06.733Z,26.00
2017-07-30T13:15:34.423Z,26.10
2017-07-30T13:18:01.880Z,26.30
2017-07-30T13:20:29.335Z,26.30
2017-07-30T13:22:56.824Z,26.40
2017-07-30T13:25:24.267Z,26.00
2017-07-30T13:27:51.723Z,25.70
2017-07-30T13:30:19.203Z,25.60
2017-07-30T13:32:46.650Z,25.70
2017-07-30T13:35:14.102Z,25.90
2017-07-30T13:37:41.675Z,25.70
2017-07-30T13:40:09.129Z,25.80
2017-07-30T13:42:36.598Z,27.90
2017-07-30T13:45:04.400Z,27.90
2017-07-30T13:47:31.857Z,28.40
2017-07-30T13:49:59.316Z,28.70
2017-07-30T13:52:26.796Z,28.50
2017-07-30T13:54:54.255Z,28.60
2017-07-30T13:57:21.711Z,27.50
2017-07-30T13:59:49.217Z,27.70
2017-07-30T14:02:16.662Z,28.30
2017-07-30T14:04:44.125Z,27.00
2017-07-30T14:07:11.911Z,28.30
2017-07-30T14:09:39.359Z,29.10
2017-07-30T14:12:06.814Z,28.90
2017-07-30T14:14:34.580Z,28.50
2017-07-30T14:17:02.035Z,27.80
2017-07-30T14:19:29.492Z,27.20
2017-07-30T14:21:56.982Z,28.40
2017-07-30T14:24:24.435Z,27.00
2017-07-30T14:26:51.903Z,26.50
2017-07-30T14:29:19.384Z,26.20
2017-07-30T14:31:46.844Z,26.00
2017-07-30T14:34:14.308Z,25.80
2017-07-30T14:36:42.055Z,25.80
2017-07-30T14:39:09.513Z,26.60
2017-07-30T14:41:36.967Z,28.10
2017-07-30T14:44:04.449Z,28.40
2017-07-30T14:46:31.899Z,27.80
2017-07-30T14:48:59.364Z,26.50
2017-07-30T14:51:27.024Z,26.40
2017-07-30T14:53:54.487Z,26.30
2017-07-30T14:56:22.346Z,26.10
2017-07-30T14:58:50.104Z,26.10
2017-07-30T15:01:17.550Z,26.30
2017-07-30T15:03:45.013Z,26.20
2017-07-30T15:06:12.486Z,26.40
2017-07-30T15:08:40.342Z,26.50
2017-07-30T15:11:07.798Z,26.50
2017-07-30T15:13:35.367Z,26.50
2017-07-30T15:16:03.219Z,26.30
2017-07-30T15:18:30.688Z,26.20
2017-07-30T15:20:58.583Z,26.10
2017-07-30T15:23:26.039Z,26.10
2017-07-30T15:25:53.494Z,26.00
2017-07-30T15:28:20.963Z,25.90
2017-07-30T15:30:48.414Z,25.60
2017-07-30T15:33:15.874Z,25.20
2017-07-30T15:35:43.667Z,25.00
2017-07-30T15:38:11.117Z,25.30
2017-07-30T15:40:38.585Z,25.30
2017-07-30T15:43:06.334Z,25.20
2017-07-30T15:45:33.800Z,25.10
2017-07-30T15:48:01.258Z,24.90
2017-07-30T15:50:28.724Z,24.90
2017-07-30T15:52:56.180Z,24.60
2017-07-30T15:55:24.030Z,24.30
2017-07-30T15:57:51.543Z,24.30
2017-07-30T16:00:19.007Z,24.20
2017-07-30T16:02:46.457Z,24.00
2017-07-30T16:05:13.954Z,24.20
2017-07-30T16:07:41.406Z,24.10
2017-07-30T16:10:08.873Z,24.00
2017-07-30T16:12:37.022Z,23.70
2017-07-30T16:15:04.489Z,23.70
2017-07-30T16:17:31.953Z,23.60
2017-07-30T16:20:15.104Z,23.50
2017-07-30T16:22:42.555Z,23.50
2017-07-30T16:25:10.006Z,23.50
2017-07-30T16:27:37.491Z,23.50
2017-07-30T16:30:04.942Z,23.30
2017-07-30T16:32:32.407Z,23.20
2017-07-30T16:34:59.899Z,23.20
2017-07-30T16:37:27.351Z,22.80
2017-07-30T16:39:54.870Z,22.60
2017-07-30T16:42:22.676Z,22.70
2017-07-30T16:44:50.122Z,22.90
2017-07-30T16:47:17.588Z,22.90
2017-07-30T16:49:45.339Z,23.00
2017-07-30T16:52:12.795Z,22.90
2017-07-30T16:54:40.510Z,22.90
2017-07-30T16:57:07.966Z,22.90
2017-07-30T16:59:35.416Z,22.80
2017-07-30T17:02:03.129Z,22.80
2017-07-30T17:04:30.589Z,22.80
2017-07-30T17:06:58.456Z,22.80
2017-07-30T17:09:26.206Z,22.80
2017-07-30T17:11:53.663Z,23.00
2017-07-30T17:14:21.115Z,23.00
2017-07-30T17:16:48.594Z,23.10
2017-07-30T17:19:16.438Z,22.80
2017-07-30T17:21:44.316Z,22.60
2017-07-30T17:24:11.804Z,22.60
2017-07-30T17:26:39.279Z,22.50
2017-07-30T17:29:06.742Z,22.40
2017-07-30T17:31:34.311Z,22.10
2017-07-30T17:34:01.772Z,22.10
2017-07-30T17:36:29.227Z,22.20
2017-07-30T17:38:57.002Z,22.10
2017-07-30T17:41:24.472Z,21.90
2017-07-30T17:43:52.343Z,21.60
2017-07-30T17:46:20.244Z,21.20
2017-07-30T17:48:47.708Z,21.20
2017-07-30T17:51:15.176Z,21.10
2017-07-30T17:53:42.650Z,21.20
2017-07-30T17:56:10.146Z,21.30
2017-07-30T17:58:38.178Z,21.30
2017-07-30T18:01:05.645Z,21.30
2017-07-30T18:03:33.105Z,21.30
2017-07-30T18:06:00.611Z,21.30
2017-07-30T18:08:28.075Z,21.30
2017-07-30T18:10:55.541Z,21.30
2017-07-30T18:13:23.057Z,21.20
2017-07-30T18:15:50.510Z,21.10
2017-07-30T18:18:17.979Z,21.00
2017-07-30T18:20:45.464Z,21.10
2017-07-30T18:23:12.914Z,21.20
2017-07-30T18:25:40.370Z,21.20
2017-07-30T18:28:07.897Z,21.20
2017-07-30T18:30:35.483Z,21.30
2017-07-30T18:33:02.945Z,21.30
2017-07-30T18:35:30.418Z,21.30
2017-07-30T18:37:57.880Z,21.20
2017-07-30T18:40:25.792Z,21.20
2017-07-30T18:42:53.251Z,21.20
2017-07-30T18:45:20.736Z,20.90
2017-07-30T18:47:49.340Z,20.90
2017-07-30T18:50:16.784Z,20.80
2017-07-30T18:52:44.270Z,20.80
2017-07-30T18:55:11.767Z,20.70
2017-07-30T18:57:39.234Z,20.60
2017-07-30T19:00:06.687Z,20.60
2017-07-30T19:02:34.171Z,20.40
2017-07-30T19:05:01.633Z,20.30
2017-07-30T19:07:29.108Z,20.40
2017-07-30T19:09:56.610Z,20.20
2017-07-30T19:12:24.068Z,20.20
2017-07-30T19:14:51.518Z,20.30
2017-07-30T19:17:19.013Z,20.40
2017-07-30T19:19:46.462Z,20.30
2017-07-30T19:22:13.923Z,20.10
2017-07-30T19:24:41.976Z,20.00
2017-07-30T19:27:09.427Z,20.00
2017-07-30T19:29:36.884Z,20.10
2017-07-30T19:32:04.467Z,20.00
2017-07-30T19:34:32.314Z,19.90
2017-07-30T19:36:59.775Z,19.90
2017-07-30T19:39:27.660Z,19.80
2017-07-30T19:41:55.114Z,19.80
2017-07-30T19:44:22.571Z,19.70
2017-07-30T19:46:50.109Z,19.80
2017-07-30T19:49:17.604Z,19.70
2017-07-30T19:51:45.071Z,19.50
2017-07-30T19:54:12.694Z,19.50
2017-07-30T19:56:40.155Z,19.40
2017-07-30T19:59:07.613Z,19.30
2017-07-30T20:01:35.331Z,19.40
2017-07-30T20:04:03.753Z,19.30
2017-07-30T20:06:31.235Z,19.40
2017-07-30T20:08:58.723Z,19.70
2017-07-30T20:11:26.189Z,19.70
2017-07-30T20:13:53.639Z,19.70
2017-07-30T20:16:21.136Z,19.70
2017-07-30T20:18:48.600Z,19.70
2017-07-30T20:21:16.051Z,19.50
2017-07-30T20:23:43.560Z,19.30
2017-07-30T20:26:11.011Z,19.20
2017-07-30T20:28:38.473Z,18.90
2017-07-30T20:31:05.950Z,19.10
2017-07-30T20:33:33.432Z,19.20
2017-07-30T20:36:00.888Z,19.10
2017-07-30T20:38:28.375Z,19.20
2017-07-30T20:40:55.872Z,19.20
2017-07-30T20:43:23.728Z,18.80
2017-07-30T20:45:51.617Z,19.10
2017-07-30T20:48:19.093Z,19.10
2017-07-30T20:50:46.567Z,19.20
2017-07-30T20:53:14.174Z,19.30
2017-07-30T20:55:41.631Z,19.30
2017-07-30T20:58:09.088Z,19.20
2017-07-30T21:00:36.926Z,19.10
2017-07-30T21:03:04.379Z,19.10
2017-07-30T21:05:31.841Z,18.40
2017-07-30T21:07:59.323Z,18.20
2017-07-30T21:10:26.783Z,18.20
2017-07-30T21:12:54.256Z,18.40
2017-07-30T21:15:21.742Z,18.50
2017-07-30T21:17:49.195Z,18.40
2017-07-30T21:20:16.654Z,18.60
2017-07-30T21:22:44.314Z,18.90
2017-07-30T21:25:11.764Z,18.80
2017-07-30T21:27:39.231Z,18.90
2017-07-30T21:32:40.728Z,19.00
2017-07-30T21:35:08.194Z,18.70
2017-07-30T21:37:35.651Z,18.50
2017-07-30T21:40:03.106Z,18.70
2017-07-30T21:42:30.595Z,18.70
2017-07-30T21:44:58.052Z,18.50
2017-07-30T21:47:25.516Z,18.20
2017-07-30T21:49:53.594Z,18.20
2017-07-30T21:52:21.050Z,18.40
2017-07-30T21:54:48.515Z,18.40
2017-07-30T21:57:15.983Z,18.20
2017-07-30T21:59:43.838Z,18.40
2017-07-30T22:02:11.701Z,18.40
2017-07-30T22:04:39.188Z,18.40
2017-07-30T22:07:06.643Z,18.10
2017-07-30T22:09:34.095Z,17.70
2017-07-30T22:12:01.675Z,17.70
2017-07-30T22:14:29.142Z,17.80
2017-07-30T22:16:56.615Z,18.00
2017-07-30T22:19:24.291Z,18.20
2017-07-30T22:21:51.752Z,18.00
2017-07-30T22:24:19.211Z,17.90
2017-07-30T22:26:46.857Z,17.90
2017-07-30T22:29:14.304Z,17.90
2017-07-30T22:31:41.763Z,18.00
2017-07-30T22:34:09.231Z,18.10
2017-07-30T22:36:37.209Z,18.00
2017-07-30T22:39:05.064Z,18.00
2017-07-30T22:41:32.538Z,18.00
2017-07-30T22:43:59.987Z,18.20
2017-07-30T22:46:27.438Z,18.20
2017-07-30T22:48:54.908Z,18.20
2017-07-30T22:51:22.376Z,18.10
2017-07-30T22:53:49.827Z,18.00
2017-07-30T22:56:17.308Z,18.00
2017-07-30T22:58:44.761Z,18.00
2017-07-30T23:01:12.216Z,18.00
2017-07-30T23:03:39.910Z,17.90
2017-07-30T23:06:07.368Z,17.70
2017-07-30T23:08:34.835Z,17.70
2017-07-30T23:11:02.588Z,17.80
2017-07-30T23:13:30.038Z,17.80
2017-07-30T23:15:57.495Z,17.80
2017-07-30T23:18:24.980Z,17.80
2017-07-30T23:20:52.830Z,17.80
2017-07-30T23:23:20.679Z,17.80
2017-07-30T23:25:48.163Z,17.80
2017-07-30T23:28:15.628Z,17.80
2017-07-30T23:30:43.111Z,17.80
2017-07-30T23:33:10.596Z,17.90
2017-07-30T23:35:38.050Z,17.90
2017-07-30T23:38:05.516Z,17.80
2017-07-30T23:40:33.283Z,17.70
2017-07-30T23:43:00.747Z,17.50
2017-07-30T23:45:28.198Z,17.40
2017-07-30T23:47:55.699Z,17.30
2017-07-30T23:50:23.160Z,17.20
2017-07-30T23:52:50.616Z,17.30
2017-07-30T23:55:18.364Z,17.10
2017-07-30T23:57:45.848Z,17.20
